Time;durP1;ratioP1;P1;durP2;ratioP2;P2;SDS_P1;SDS_P2;PMS_P1;PMS_P2;Temp;Humidity;BMP_temperature;BMP_pressure;BME280_temperature;BME280_humidity;BME280_pressure;Samples;Min_cycle;Max_cycle;Signal;HPM_P1;HPM_P2
2022/01/11 00:00:31;;;;;;;641.05;125.30;;;0.60;99.90;;;;;;5072226;28;20405;-78
2022/01/11 00:02:56;;;;;;;630.80;125.53;;;0.50;99.90;;;;;;5071990;28;20473;-77
2022/01/11 00:05:33;;;;;;;637.42;128.50;;;0.50;99.90;;;;;;5071943;28;20529;-78
2022/01/11 00:07:59;;;;;;;676.33;136.77;;;0.50;99.90;;;;;;5071843;28;20796;-77
2022/01/11 00:10:30;;;;;;;570.28;118.53;;;0.50;99.90;;;;;;5071641;28;20406;-77
2022/01/11 00:12:57;;;;;;;524.53;116.18;;;0.50;99.90;;;;;;5054964;28;20402;-78
2022/01/11 00:15:23;;;;;;;630.22;123.78;;;0.50;99.90;;;;;;5072320;28;20761;-78
2022/01/11 00:17:50;;;;;;;606.58;118.90;;;0.50;99.90;;;;;;5071729;28;20417;-77
2022/01/11 00:20:17;;;;;;;527.50;109.63;;;0.50;99.90;;;;;;5071692;28;20405;-78
2022/01/11 00:25:25;;;;;;;469.92;107.30;;;0.50;99.90;;;;;;5071869;28;20413;-78
2022/01/11 00:27:50;;;;;;;453.70;101.57;;;0.50;99.90;;;;;;5059384;28;21174;-77
2022/01/11 00:30:16;;;;;;;432.17;100.53;;;0.50;99.90;;;;;;5051443;28;20400;-78
2022/01/11 00:32:47;;;;;;;561.80;113.82;;;0.40;99.90;;;;;;5034806;28;20400;-77
2022/01/11 00:35:16;;;;;;;520.83;113.68;;;0.40;99.90;;;;;;5051427;28;20412;-78
2022/01/11 00:37:42;;;;;;;548.28;114.97;;;0.40;99.90;;;;;;5051165;28;20414;-78
2022/01/11 00:40:08;;;;;;;432.35;100.07;;;0.40;99.90;;;;;;5051723;28;20408;-78
2022/01/11 00:42:35;;;;;;;485.88;105.70;;;0.40;99.90;;;;;;5051471;28;20447;-77
2022/01/11 00:45:03;;;;;;;585.95;112.90;;;0.40;99.90;;;;;;5051383;28;20486;-78
2022/01/11 00:47:29;;;;;;;441.90;101.70;;;0.30;99.90;;;;;;5051380;28;20896;-78
2022/01/11 00:49:55;;;;;;;561.38;113.30;;;0.40;99.90;;;;;;5051454;28;20493;-78
2022/01/11 00:52:21;;;;;;;566.45;116.32;;;0.30;99.90;;;;;;5069022;28;20397;-78
2022/01/11 00:54:47;;;;;;;471.38;98.40;;;0.30;99.90;;;;;;5051333;28;20403;-78
2022/01/11 00:57:12;;;;;;;416.83;95.13;;;0.30;99.90;;;;;;5050696;28;20434;-78
2022/01/11 00:59:38;;;;;;;467.17;96.87;;;0.30;99.90;;;;;;5051369;28;20408;-78
2022/01/11 01:02:04;;;;;;;460.95;98.13;;;0.30;99.90;;;;;;5050773;28;20556;-77
2022/01/11 01:04:29;;;;;;;470.73;99.68;;;0.30;99.90;;;;;;5050975;28;20440;-78
2022/01/11 01:06:55;;;;;;;360.23;89.70;;;0.20;99.90;;;;;;5050941;28;20404;-78
2022/01/11 01:09:21;;;;;;;374.47;87.97;;;0.20;99.90;;;;;;5050300;28;20438;-78
2022/01/11 01:11:47;;;;;;;260.90;68.37;;;0.20;99.90;;;;;;5050986;28;20502;-78
2022/01/11 01:14:13;;;;;;;245.27;72.30;;;0.10;99.90;;;;;;5050817;28;20771;-78
2022/01/11 01:16:39;;;;;;;342.92;82.63;;;0.10;99.90;;;;;;5034091;28;20892;-77
2022/01/11 01:19:05;;;;;;;321.20;79.78;;;0.10;99.90;;;;;;5050486;28;20913;-78
2022/01/11 01:21:37;;;;;;;428.40;96.70;;;0.10;99.90;;;;;;5050180;28;20489;-78
2022/01/11 01:24:08;;;;;;;384.05;91.78;;;0.00;99.90;;;;;;5050135;28;20495;-78
2022/01/11 01:26:34;;;;;;;342.90;80.35;;;0.10;99.90;;;;;;5051899;28;20412;-78
2022/01/11 01:29:00;;;;;;;354.93;88.50;;;0.10;99.90;;;;;;5070347;28;20809;-77
2022/01/11 01:31:27;;;;;;;316.33;77.72;;;0.10;99.90;;;;;;5070614;28;20409;-77
2022/01/11 01:33:53;;;;;;;332.17;84.15;;;0.10;99.90;;;;;;5069996;28;20410;-78
2022/01/11 01:36:19;;;;;;;404.25;86.55;;;0.00;99.90;;;;;;5070448;28;20432;-78
2022/01/11 01:38:44;;;;;;;308.50;81.90;;;0.00;99.90;;;;;;5070739;28;20495;-77
2022/01/11 01:41:18;;;;;;;331.43;81.40;;;0.00;99.90;;;;;;5070306;28;20416;-77
2022/01/11 01:43:47;;;;;;;339.23;82.72;;;0.10;99.90;;;;;;5053280;28;20410;-78
2022/01/11 01:46:13;;;;;;;375.85;85.45;;;0.10;99.90;;;;;;5069901;28;20417;-77
2022/01/11 01:48:39;;;;;;;412.73;87.90;;;0.10;99.90;;;;;;5070214;28;20438;-78
2022/01/11 01:51:07;;;;;;;337.03;81.17;;;0.10;99.90;;;;;;5070312;28;20485;-77
2022/01/11 01:53:35;;;;;;;326.70;79.95;;;0.10;99.90;;;;;;5070440;28;20402;-78
2022/01/11 01:56:02;;;;;;;391.45;92.30;;;0.10;99.90;;;;;;5069959;28;20413;-77
2022/01/11 01:58:29;;;;;;;311.63;79.40;;;0.10;99.90;;;;;;5053569;28;20429;-78
2022/01/11 02:01:02;;;;;;;409.70;89.20;;;0.10;99.90;;;;;;5070515;28;20844;-77
2022/01/11 02:03:30;;;;;;;410.33;88.83;;;0.10;99.90;;;;;;5070107;28;20900;-77
2022/01/11 02:05:56;;;;;;;457.92;85.63;;;0.10;99.90;;;;;;5070121;28;20445;-78
2022/01/11 02:08:23;;;;;;;472.83;92.25;;;0.10;99.90;;;;;;5070154;28;20868;-78
2022/01/11 02:10:49;;;;;;;416.15;84.57;;;0.10;99.90;;;;;;5070026;28;20417;-78
2022/01/11 02:13:15;;;;;;;358.38;83.07;;;0.10;99.90;;;;;;5069660;28;20401;-78
2022/01/11 02:15:41;;;;;;;377.88;80.20;;;0.10;99.90;;;;;;5069851;28;20403;-78
2022/01/11 02:18:11;;;;;;;393.65;84.45;;;0.10;99.90;;;;;;5070047;28;20409;-77
2022/01/11 02:20:39;;;;;;;457.23;93.65;;;0.10;99.90;;;;;;5069898;28;20414;-78
2022/01/11 02:23:05;;;;;;;397.85;86.60;;;0.10;99.90;;;;;;5069679;28;20406;-77
2022/01/11 02:25:31;;;;;;;425.27;84.90;;;0.10;99.90;;;;;;5069768;28;20550;-78
2022/01/11 02:27:56;;;;;;;432.00;84.70;;;0.10;99.90;;;;;;5056242;28;20438;-78
2022/01/11 02:30:22;;;;;;;439.63;87.90;;;0.10;99.90;;;;;;5033281;28;20457;-77
2022/01/11 02:32:50;;;;;;;390.17;82.00;;;0.10;99.90;;;;;;5049412;28;20501;-78
2022/01/11 02:35:15;;;;;;;459.42;91.97;;;0.10;99.90;;;;;;5036539;28;20407;-78
2022/01/11 02:37:43;;;;;;;399.35;84.05;;;0.10;99.90;;;;;;5053975;28;20499;-78
2022/01/11 02:40:09;;;;;;;406.50;92.07;;;0.10;99.90;;;;;;5053210;28;20447;-77
2022/01/11 02:42:35;;;;;;;389.85;84.03;;;0.10;99.90;;;;;;5053655;28;20418;-78
2022/01/11 02:45:00;;;;;;;421.97;86.80;;;0.10;99.90;;;;;;5037086;28;20400;-77
2022/01/11 02:47:26;;;;;;;446.90;88.23;;;0.10;99.90;;;;;;5036059;28;20415;-78
2022/01/11 02:49:52;;;;;;;381.05;82.07;;;0.00;99.90;;;;;;5052393;28;20407;-78
2022/01/11 02:52:17;;;;;;;415.37;85.57;;;0.00;99.90;;;;;;5035287;28;20499;-78
2022/01/11 02:54:43;;;;;;;371.80;82.38;;;0.00;99.90;;;;;;5052664;28;20400;-78
2022/01/11 02:57:08;;;;;;;299.07;75.93;;;0.00;99.90;;;;;;5052406;28;20470;-78
2022/01/11 02:59:34;;;;;;;393.57;81.33;;;0.00;99.90;;;;;;5052078;28;20443;-78
2022/01/11 03:01:59;;;;;;;332.85;74.28;;;0.00;99.90;;;;;;5052080;28;20759;-78
2022/01/11 03:04:29;;;;;;;379.93;79.30;;;0.00;99.90;;;;;;5035616;28;20905;-77
2022/01/11 03:06:56;;;;;;;343.60;73.25;;;0.10;99.90;;;;;;5035690;28;20403;-78
2022/01/11 03:09:23;;;;;;;394.35;80.00;;;0.00;99.90;;;;;;5045095;28;20431;-78
2022/01/11 03:11:48;;;;;;;371.77;83.70;;;0.00;99.90;;;;;;5028665;28;20418;-78
2022/01/11 03:14:14;;;;;;;371.35;81.28;;;0.00;99.90;;;;;;5029090;28;20908;-78
2022/01/11 03:16:39;;;;;;;361.20;79.70;;;0.10;99.90;;;;;;5012404;28;20399;-78
2022/01/11 03:19:05;;;;;;;316.02;75.05;;;0.00;99.90;;;;;;5028921;28;20414;-78
2022/01/11 03:21:31;;;;;;;391.03;88.13;;;0.10;99.90;;;;;;5012324;28;20420;-77
2022/01/11 03:23:57;;;;;;;343.20;75.83;;;0.10;99.90;;;;;;5028595;28;20410;-78
2022/01/11 03:26:23;;;;;;;346.83;80.35;;;0.00;99.90;;;;;;5027912;28;20423;-78
2022/01/11 03:28:49;;;;;;;413.30;87.40;;;0.00;99.90;;;;;;5028490;28;20465;-78
2022/01/11 03:31:16;;;;;;;375.80;86.00;;;0.00;99.90;;;;;;5028548;28;20403;-78
2022/01/11 03:33:41;;;;;;;336.33;79.15;;;0.10;99.90;;;;;;5028567;28;20472;-78
2022/01/11 03:36:07;;;;;;;302.08;76.97;;;0.10;99.90;;;;;;5028308;28;20445;-78
2022/01/11 03:38:34;;;;;;;362.55;78.68;;;0.10;99.90;;;;;;5033308;28;20514;-77
2022/01/11 03:41:00;;;;;;;390.58;92.47;;;0.10;99.90;;;;;;5028081;28;20411;-78
2022/01/11 03:43:26;;;;;;;411.50;93.90;;;0.00;99.90;;;;;;5040054;28;20467;-78
2022/01/11 03:45:51;;;;;;;399.15;92.43;;;0.00;99.90;;;;;;5047649;28;20410;-78
2022/01/11 03:48:19;;;;;;;411.10;90.13;;;0.10;99.90;;;;;;5031515;28;20446;-78
2022/01/11 03:50:51;;;;;;;533.67;112.55;;;0.10;99.90;;;;;;5027960;28;20450;-78
2022/01/11 03:53:18;;;;;;;418.07;94.60;;;0.10;99.90;;;;;;5011463;28;20415;-78
2022/01/11 03:55:58;;;;;;;385.13;86.30;;;0.10;99.90;;;;;;5035758;28;20799;-77
2022/01/11 03:58:26;;;;;;;415.83;90.35;;;0.10;99.90;;;;;;5047850;28;20417;-76
2022/01/11 04:00:52;;;;;;;416.33;91.05;;;0.10;99.90;;;;;;5047844;28;20489;-76
2022/01/11 04:03:18;;;;;;;402.60;87.53;;;0.10;99.90;;;;;;5047964;28;20723;-76
2022/01/11 04:05:45;;;;;;;460.65;98.47;;;0.10;99.90;;;;;;5047454;28;20492;-76
2022/01/11 04:08:11;;;;;;;351.35;81.18;;;0.10;99.90;;;;;;5030754;28;20421;-76
2022/01/11 04:10:38;;;;;;;458.30;98.07;;;0.10;99.90;;;;;;5045260;28;20431;-76
2022/01/11 04:13:04;;;;;;;363.85;86.45;;;0.10;99.90;;;;;;5068566;28;20449;-76
2022/01/11 04:15:29;;;;;;;382.92;89.07;;;0.10;99.90;;;;;;5067973;28;20412;-76
2022/01/11 04:17:55;;;;;;;352.03;84.97;;;0.10;99.90;;;;;;5067469;28;20514;-76
2022/01/11 04:20:22;;;;;;;353.97;86.77;;;0.10;99.90;;;;;;5067829;28;20407;-76
2022/01/11 04:22:48;;;;;;;421.35;97.03;;;0.10;99.90;;;;;;5067980;28;20407;-76
2022/01/11 04:25:14;;;;;;;423.75;91.43;;;0.10;99.90;;;;;;5067570;28;20414;-76
2022/01/11 04:27:40;;;;;;;463.17;103.80;;;0.10;99.90;;;;;;5067322;28;20449;-76
2022/01/11 04:30:06;;;;;;;443.73;98.20;;;0.20;99.90;;;;;;5067166;28;20407;-76
2022/01/11 04:32:32;;;;;;;355.30;86.87;;;0.10;99.90;;;;;;5067108;28;20402;-76
2022/01/11 04:34:57;;;;;;;411.03;89.77;;;0.20;99.90;;;;;;5068343;28;20761;-76
2022/01/11 04:37:23;;;;;;;425.35;96.75;;;0.20;99.90;;;;;;5067287;28;20412;-76
2022/01/11 04:39:50;;;;;;;494.07;100.30;;;0.10;99.90;;;;;;5067240;28;20423;-76
2022/01/11 04:42:15;;;;;;;436.20;103.32;;;0.10;99.90;;;;;;5067018;28;20419;-76
2022/01/11 04:44:41;;;;;;;401.73;94.27;;;0.10;99.90;;;;;;5066557;28;20481;-75
2022/01/11 04:47:07;;;;;;;457.80;99.50;;;0.20;99.90;;;;;;5059289;28;20831;-77
2022/01/11 04:49:33;;;;;;;449.58;99.00;;;0.10;99.90;;;;;;5047121;28;20447;-76
2022/01/11 04:51:58;;;;;;;457.97;92.97;;;0.20;99.90;;;;;;5030067;28;20431;-77
2022/01/11 04:54:24;;;;;;;429.27;96.87;;;0.20;99.90;;;;;;5047244;28;20413;-76
2022/01/11 04:56:50;;;;;;;483.33;104.22;;;0.20;99.90;;;;;;5046279;28;20405;-76
2022/01/11 04:59:15;;;;;;;424.73;97.25;;;0.20;99.90;;;;;;5046880;28;20831;-76
2022/01/11 05:01:42;;;;;;;461.23;103.37;;;0.20;99.90;;;;;;5047163;28;20413;-76
2022/01/11 05:04:08;;;;;;;412.27;99.47;;;0.20;99.90;;;;;;5046373;28;20406;-76
2022/01/11 05:06:34;;;;;;;420.20;92.97;;;0.30;99.90;;;;;;5046827;28;20406;-76
2022/01/11 05:09:00;;;;;;;457.98;96.95;;;0.30;99.90;;;;;;5047178;28;20769;-77
2022/01/11 05:11:25;;;;;;;501.58;109.57;;;0.20;99.90;;;;;;5049994;28;20422;-77
2022/01/11 05:13:51;;;;;;;299.50;86.68;;;0.20;99.90;;;;;;5049708;28;20416;-76
2022/01/11 05:16:17;;;;;;;308.80;81.37;;;0.30;99.90;;;;;;5049844;28;20400;-76
2022/01/11 05:18:43;;;;;;;347.43;86.27;;;0.30;99.90;;;;;;5049901;28;20410;-76
2022/01/11 05:21:08;;;;;;;304.05;82.47;;;0.30;99.90;;;;;;5033252;28;20490;-76
2022/01/11 05:23:34;;;;;;;351.60;88.18;;;0.30;99.90;;;;;;5049987;28;20929;-76
2022/01/11 05:26:00;;;;;;;316.08;80.25;;;0.30;99.90;;;;;;5049858;28;20403;-76
2022/01/11 05:28:26;;;;;;;274.67;77.32;;;0.30;99.90;;;;;;5049090;28;20434;-76
2022/01/11 05:30:51;;;;;;;319.33;83.93;;;0.30;99.90;;;;;;5033034;28;20408;-76
2022/01/11 05:33:17;;;;;;;343.63;86.20;;;0.30;99.90;;;;;;5049651;28;20758;-77
2022/01/11 05:35:43;;;;;;;333.53;80.90;;;0.30;99.90;;;;;;5049587;28;20399;-76
2022/01/11 05:38:09;;;;;;;314.40;77.72;;;0.30;99.90;;;;;;5049406;28;20415;-76
2022/01/11 05:40:35;;;;;;;314.50;78.75;;;0.30;99.90;;;;;;5049390;28;20404;-76
2022/01/11 05:43:01;;;;;;;306.73;82.07;;;0.30;99.90;;;;;;5048935;28;20763;-76
2022/01/11 05:45:26;;;;;;;309.63;80.32;;;0.30;99.90;;;;;;5049409;28;20400;-76
2022/01/11 05:47:52;;;;;;;294.10;81.50;;;0.30;99.90;;;;;;5047733;28;20436;-76
2022/01/11 05:50:19;;;;;;;277.60;79.97;;;0.30;99.90;;;;;;5069150;28;20447;-76
2022/01/11 05:52:45;;;;;;;305.15;82.70;;;0.30;99.90;;;;;;5069442;28;20464;-76
2022/01/11 05:55:12;;;;;;;250.93;77.90;;;0.40;99.90;;;;;;5069368;28;21206;-76
2022/01/11 05:57:41;;;;;;;248.50;75.63;;;0.30;99.90;;;;;;5069393;28;20413;-76
2022/01/11 06:00:10;;;;;;;261.65;77.78;;;0.40;99.90;;;;;;5069288;28;20921;-76
2022/01/11 06:02:35;;;;;;;252.77;79.25;;;0.40;99.90;;;;;;5068998;28;20956;-77
2022/01/11 06:05:01;;;;;;;270.20;79.07;;;0.40;99.90;;;;;;5052264;28;20465;-76
2022/01/11 06:07:27;;;;;;;260.60;75.18;;;0.40;99.90;;;;;;5086878;28;20405;-76
2022/01/11 06:09:53;;;;;;;280.95;82.15;;;0.40;99.90;;;;;;5069122;28;20398;-76
2022/01/11 06:12:18;;;;;;;229.93;68.87;;;0.40;99.90;;;;;;5068752;28;20958;-76
2022/01/11 06:14:44;;;;;;;247.65;76.40;;;0.40;99.90;;;;;;5069203;28;20412;-76
2022/01/11 06:17:09;;;;;;;271.10;76.40;;;0.40;99.90;;;;;;5068908;28;20999;-76
2022/01/11 06:19:35;;;;;;;267.23;80.97;;;0.40;99.90;;;;;;5068808;28;20455;-76
2022/01/11 06:22:01;;;;;;;328.85;88.15;;;0.40;99.90;;;;;;5068544;28;20454;-76
2022/01/11 06:24:26;;;;;;;305.13;83.25;;;0.50;99.90;;;;;;5068803;28;20827;-76
2022/01/11 06:26:52;;;;;;;340.90;87.73;;;0.50;99.90;;;;;;5069080;28;20402;-76
2022/01/11 06:29:18;;;;;;;314.23;82.70;;;0.50;99.90;;;;;;5068620;28;20426;-76
2022/01/11 06:31:43;;;;;;;338.63;87.05;;;0.50;99.90;;;;;;5068891;28;20410;-76
2022/01/11 06:34:10;;;;;;;319.10;86.65;;;0.50;99.90;;;;;;5052197;28;20398;-76
2022/01/11 06:36:36;;;;;;;313.40;88.07;;;0.50;99.90;;;;;;5068674;28;20430;-76
2022/01/11 06:39:03;;;;;;;277.23;80.97;;;0.50;99.90;;;;;;5068692;28;20444;-76
2022/01/11 06:41:28;;;;;;;273.42;79.63;;;0.50;99.90;;;;;;5068539;28;20410;-76
2022/01/11 06:43:54;;;;;;;295.05;80.97;;;0.50;99.90;;;;;;5068814;28;20762;-76
2022/01/11 06:46:23;;;;;;;337.45;89.07;;;0.50;99.90;;;;;;5065672;28;20911;-76
2022/01/11 06:48:52;;;;;;;292.42;84.10;;;0.50;99.90;;;;;;5048438;28;20432;-76
2022/01/11 06:51:19;;;;;;;290.27;82.15;;;0.50;99.90;;;;;;5048754;28;20765;-76
2022/01/11 06:53:45;;;;;;;296.17;84.03;;;0.50;99.90;;;;;;5048884;28;20404;-76
2022/01/11 06:56:11;;;;;;;282.35;78.43;;;0.50;99.90;;;;;;5069041;28;20531;-76
2022/01/11 06:58:38;;;;;;;265.13;79.05;;;0.50;99.90;;;;;;5056596;28;20543;-73
2022/01/11 07:01:04;;;;;;;302.50;80.03;;;0.50;99.90;;;;;;5077796;28;20414;-73
2022/01/11 07:03:30;;;;;;;347.13;89.45;;;0.50;99.90;;;;;;5084892;28;20417;-74
2022/01/11 07:05:56;;;;;;;307.40;83.90;;;0.40;99.90;;;;;;5069687;28;20920;-73
2022/01/11 07:08:21;;;;;;;364.63;88.43;;;0.50;99.90;;;;;;5058884;28;20422;-74
2022/01/11 07:10:47;;;;;;;262.23;78.27;;;0.50;99.90;;;;;;5066533;28;20426;-75
2022/01/11 07:13:13;;;;;;;240.90;75.50;;;0.40;99.90;;;;;;5067680;28;20532;-76
2022/01/11 07:15:39;;;;;;;290.95;81.40;;;0.40;99.90;;;;;;5059750;28;20493;-76
2022/01/11 07:18:09;;;;;;;272.98;79.53;;;0.40;99.90;;;;;;5064263;28;20514;-77
2022/01/11 07:20:37;;;;;;;302.13;77.75;;;0.40;99.90;;;;;;5050438;28;20453;-76
2022/01/11 07:23:03;;;;;;;352.65;85.85;;;0.40;99.90;;;;;;5035272;28;20492;-76
2022/01/11 07:25:32;;;;;;;334.50;88.57;;;0.40;99.90;;;;;;5052057;28;20399;-76
2022/01/11 07:27:58;;;;;;;317.73;85.50;;;0.40;99.90;;;;;;5063156;28;20452;-76
2022/01/11 07:30:24;;;;;;;324.13;84.40;;;0.40;99.90;;;;;;5070361;28;20430;-76
2022/01/11 07:32:50;;;;;;;284.65;84.05;;;0.40;99.90;;;;;;5071739;28;20539;-76
2022/01/11 07:35:16;;;;;;;278.60;81.30;;;0.40;99.90;;;;;;5071945;28;20783;-76
2022/01/11 07:37:41;;;;;;;251.80;77.50;;;0.40;99.90;;;;;;5070762;28;20409;-76
2022/01/11 07:40:08;;;;;;;246.97;77.73;;;0.40;99.90;;;;;;5052720;28;20419;-76
2022/01/11 07:42:34;;;;;;;274.63;81.95;;;0.40;99.90;;;;;;5064496;28;20492;-77
2022/01/11 07:45:00;;;;;;;225.27;74.20;;;0.50;99.90;;;;;;5065729;28;20903;-76
2022/01/11 07:47:26;;;;;;;241.27;69.50;;;0.50;99.90;;;;;;5070031;28;20417;-76
2022/01/11 07:49:52;;;;;;;271.27;78.45;;;0.50;99.90;;;;;;5071484;28;20407;-76
2022/01/11 07:52:17;;;;;;;260.25;80.85;;;0.50;99.90;;;;;;5071917;28;20402;-76
2022/01/11 07:54:43;;;;;;;287.08;83.72;;;0.50;99.90;;;;;;5071057;28;20406;-76
2022/01/11 07:57:09;;;;;;;257.45;80.05;;;0.50;99.90;;;;;;5070785;28;20413;-76
2022/01/11 07:59:35;;;;;;;283.13;80.10;;;0.50;99.90;;;;;;5071450;28;20422;-76
2022/01/11 08:02:00;;;;;;;243.47;75.97;;;0.50;99.90;;;;;;5070426;28;20401;-76
2022/01/11 08:04:30;;;;;;;317.02;87.13;;;0.50;99.90;;;;;;5042389;28;20415;-76
2022/01/11 08:06:57;;;;;;;258.10;79.50;;;0.50;99.90;;;;;;5052355;28;20917;-76
2022/01/11 08:09:23;;;;;;;237.73;75.80;;;0.60;99.90;;;;;;5051912;28;20933;-77
2022/01/11 08:11:50;;;;;;;200.33;68.83;;;0.60;99.90;;;;;;5054908;28;20515;-76
2022/01/11 08:14:16;;;;;;;208.02;69.47;;;0.60;99.90;;;;;;5072031;28;20406;-76
2022/01/11 08:16:42;;;;;;;212.60;72.65;;;0.60;99.90;;;;;;5053170;28;20945;-77
2022/01/11 08:19:07;;;;;;;206.93;71.60;;;0.60;99.90;;;;;;5064282;28;20437;-76
2022/01/11 08:21:33;;;;;;;225.30;73.63;;;0.60;99.90;;;;;;5070081;28;20403;-76
2022/01/11 08:23:59;;;;;;;183.57;67.80;;;0.60;99.90;;;;;;5069148;28;20796;-76
2022/01/11 08:26:25;;;;;;;188.23;67.15;;;0.60;99.90;;;;;;5071274;28;20402;-76
2022/01/11 08:28:50;;;;;;;186.07;66.95;;;0.60;99.90;;;;;;5057683;28;20813;-76
2022/01/11 08:31:16;;;;;;;175.27;67.00;;;0.70;99.90;;;;;;5051887;28;20400;-76
2022/01/11 08:33:41;;;;;;;168.77;65.83;;;0.60;99.90;;;;;;5072134;28;20409;-76
2022/01/11 08:36:07;;;;;;;157.10;61.20;;;0.60;99.90;;;;;;5072259;28;20402;-76
2022/01/11 08:38:35;;;;;;;163.73;63.85;;;0.70;99.90;;;;;;5071689;28;20466;-76
2022/01/11 08:41:01;;;;;;;152.80;61.47;;;0.70;99.90;;;;;;5071556;28;20662;-77
2022/01/11 08:43:27;;;;;;;149.40;61.07;;;0.70;99.90;;;;;;5070679;28;20448;-76
2022/01/11 08:45:52;;;;;;;143.37;58.73;;;0.80;99.90;;;;;;5051930;28;20445;-77
2022/01/11 08:48:18;;;;;;;133.50;57.65;;;0.80;99.90;;;;;;5066952;28;20452;-76
2022/01/11 08:50:44;;;;;;;138.00;55.75;;;0.80;99.90;;;;;;5062665;28;20928;-77
2022/01/11 08:53:10;;;;;;;142.50;59.07;;;0.80;99.90;;;;;;5051060;28;20407;-76
2022/01/11 08:55:36;;;;;;;126.10;55.53;;;0.80;99.90;;;;;;5051023;28;20890;-76
2022/01/11 08:58:02;;;;;;;128.80;56.10;;;0.80;99.90;;;;;;5052410;28;20464;-76
2022/01/11 09:00:27;;;;;;;124.80;55.40;;;0.80;99.90;;;;;;5071239;28;20916;-76
2022/01/11 09:02:54;;;;;;;121.97;54.80;;;0.80;99.90;;;;;;5067289;28;20439;-76
2022/01/11 09:05:21;;;;;;;126.40;53.63;;;0.80;99.90;;;;;;5067740;28;20407;-76
2022/01/11 09:07:48;;;;;;;111.50;51.13;;;0.80;99.90;;;;;;5067819;28;20500;-75
2022/01/11 09:10:15;;;;;;;113.00;52.13;;;0.80;99.90;;;;;;5067648;28;20444;-76
2022/01/11 09:12:41;;;;;;;116.45;54.13;;;0.80;99.90;;;;;;5069018;28;20782;-76
2022/01/11 09:15:09;;;;;;;106.13;51.27;;;0.80;99.90;;;;;;5070972;28;20410;-76
2022/01/11 09:17:36;;;;;;;104.72;51.63;;;0.80;99.90;;;;;;5067183;28;20432;-76
2022/01/11 09:20:05;;;;;;;103.85;49.83;;;0.90;99.90;;;;;;5067263;28;20410;-76
2022/01/11 09:22:31;;;;;;;111.13;52.20;;;0.90;99.90;;;;;;5067086;28;20882;-77
2022/01/11 09:24:56;;;;;;;117.63;54.03;;;0.90;99.90;;;;;;5066913;28;20491;-77
2022/01/11 09:27:22;;;;;;;112.60;53.00;;;0.90;99.90;;;;;;5068363;28;20414;-77
2022/01/11 09:29:48;;;;;;;105.20;50.35;;;0.90;99.90;;;;;;5060472;28;20432;-77
2022/01/11 09:32:14;;;;;;;98.57;48.03;;;0.90;99.90;;;;;;5034131;28;20411;-76
2022/01/11 09:34:41;;;;;;;93.87;46.57;;;1.00;99.90;;;;;;5065837;28;20413;-77
2022/01/11 09:37:08;;;;;;;88.47;44.50;;;1.00;99.90;;;;;;5053920;28;20487;-77
2022/01/11 09:39:35;;;;;;;87.90;46.37;;;1.00;99.90;;;;;;5050288;28;20408;-77
2022/01/11 09:42:01;;;;;;;86.45;44.58;;;1.00;99.90;;;;;;5062371;28;20909;-77
2022/01/11 09:44:27;;;;;;;84.93;43.57;;;1.00;99.90;;;;;;5049729;28;20412;-77
2022/01/11 09:46:53;;;;;;;76.60;41.77;;;1.10;99.90;;;;;;5057758;28;20407;-75
2022/01/11 09:49:19;;;;;;;77.47;40.90;;;1.10;99.90;;;;;;5050628;28;20541;-75
2022/01/11 09:51:45;;;;;;;77.43;41.43;;;1.10;99.90;;;;;;5050921;28;20473;-75
2022/01/11 09:54:12;;;;;;;74.70;42.17;;;1.10;99.90;;;;;;5058617;28;20901;-75
2022/01/11 09:56:38;;;;;;;71.35;39.42;;;1.20;99.90;;;;;;5049827;28;20411;-75
2022/01/11 09:59:05;;;;;;;71.30;39.00;;;1.20;99.90;;;;;;5043572;28;20824;-75
2022/01/11 10:01:32;;;;;;;74.38;39.90;;;1.20;99.90;;;;;;5070051;28;20410;-75
2022/01/11 10:04:00;;;;;;;67.18;39.10;;;1.30;99.90;;;;;;5069681;28;20481;-75
2022/01/11 10:06:26;;;;;;;66.93;37.58;;;1.30;99.90;;;;;;5069187;28;20456;-75
2022/01/11 10:09:12;;;;;;;66.47;38.08;;;1.30;99.90;;;;;;5068970;28;20429;-75
2022/01/11 10:11:41;;;;;;;65.93;37.72;;;1.40;99.90;;;;;;5069419;28;20417;-75
2022/01/11 10:14:24;;;;;;;63.25;38.28;;;1.40;99.90;;;;;;5070220;28;20451;-75
2022/01/11 10:17:04;;;;;;;66.10;37.97;;;1.50;99.90;;;;;;5053518;28;20418;-75
2022/01/11 10:19:30;;;;;;;63.58;35.85;;;1.50;99.90;;;;;;5069593;28;20410;-75
2022/01/11 10:21:56;;;;;;;63.45;36.35;;;1.50;99.90;;;;;;5068902;28;20496;-75
2022/01/11 10:24:21;;;;;;;59.78;35.05;;;1.60;99.90;;;;;;5068959;28;20489;-75
2022/01/11 10:26:47;;;;;;;58.63;34.00;;;1.60;99.90;;;;;;5068973;28;20513;-75
2022/01/11 10:29:30;;;;;;;61.63;36.80;;;1.60;99.90;;;;;;5069029;28;20437;-75
2022/01/11 10:31:58;;;;;;;55.90;33.97;;;1.70;99.90;;;;;;5069141;28;21153;-75
2022/01/11 10:34:30;;;;;;;55.92;33.38;;;1.70;99.90;;;;;;5069911;28;20415;-75
2022/01/11 10:36:57;;;;;;;54.60;32.80;;;1.80;99.90;;;;;;5069900;28;20493;-75
2022/01/11 10:39:32;;;;;;;52.97;32.60;;;1.80;99.90;;;;;;5065578;28;20936;-72
2022/01/11 10:41:59;;;;;;;50.35;31.00;;;1.80;99.90;;;;;;5069809;28;20409;-75
2022/01/11 10:44:47;;;;;;;53.85;32.42;;;1.90;99.90;;;;;;5053168;28;20499;-73
2022/01/11 10:47:24;;;;;;;48.30;29.85;;;1.90;99.90;;;;;;5059917;28;20416;-74
2022/01/11 10:49:52;;;;;;;50.20;30.10;;;2.00;99.90;;;;;;5055016;28;20841;-74
2022/01/11 10:52:24;;;;;;;45.15;28.42;;;2.20;99.90;;;;;;5066763;28;20443;-74
2022/01/11 10:54:51;;;;;;;40.70;26.00;;;2.40;99.90;;;;;;5067654;28;20928;-74
2022/01/11 10:57:23;;;;;;;36.40;24.90;;;2.70;99.90;;;;;;5069555;28;20917;-74
2022/01/11 11:00:10;;;;;;;35.70;24.55;;;2.90;99.90;;;;;;5070096;28;20456;-75
2022/01/11 11:02:37;;;;;;;32.37;21.37;;;3.10;99.90;;;;;;5070348;28;20978;-75
2022/01/11 11:05:23;;;;;;;36.28;22.83;;;3.30;99.90;;;;;;5073166;28;20543;-75
2022/01/11 11:07:55;;;;;;;31.70;21.42;;;3.40;99.90;;;;;;5073341;28;20493;-75
2022/01/11 11:10:58;;;;;;;31.57;21.13;;;3.50;99.90;;;;;;5090568;28;20908;-75
2022/01/11 11:13:38;;;;;;;29.92;20.55;;;3.60;99.90;;;;;;5057654;28;20436;-75
2022/01/11 11:16:17;;;;;;;29.02;20.42;;;3.70;99.90;;;;;;5072973;28;20785;-75
2022/01/11 11:18:44;;;;;;;29.02;20.50;;;3.70;99.90;;;;;;5089346;28;20479;-75
2022/01/11 11:21:18;;;;;;;28.80;19.92;;;3.70;99.90;;;;;;5071207;28;20977;-75
2022/01/11 11:23:44;;;;;;;25.15;17.80;;;4.20;99.90;;;;;;5072322;28;20810;-75
2022/01/11 11:26:11;;;;;;;22.45;17.13;;;5.00;99.90;;;;;;5073184;28;20489;-75
2022/01/11 11:28:38;;;;;;;22.38;16.73;;;5.60;99.90;;;;;;5072495;28;20456;-75
2022/01/11 11:31:04;;;;;;;24.23;16.50;;;5.90;99.90;;;;;;5072392;28;20471;-75
2022/01/11 11:33:30;;;;;;;23.17;17.10;;;5.80;99.90;;;;;;5072427;28;20406;-74
2022/01/11 11:35:57;;;;;;;22.67;16.08;;;5.40;99.90;;;;;;5072507;28;20402;-75
2022/01/11 11:38:31;;;;;;;25.00;17.92;;;5.10;99.90;;;;;;5070899;28;20413;-75
2022/01/11 11:40:59;;;;;;;22.10;16.88;;;4.90;99.90;;;;;;5071966;28;20398;-75
2022/01/11 11:43:25;;;;;;;22.42;16.63;;;4.90;99.90;;;;;;5066834;28;20435;-75
2022/01/11 11:45:51;;;;;;;24.13;17.57;;;4.90;99.90;;;;;;5062533;28;20449;-75
2022/01/11 11:48:23;;;;;;;22.15;15.65;;;4.80;99.90;;;;;;5054067;28;20523;-75
2022/01/11 11:50:53;;;;;;;23.33;16.70;;;4.60;99.90;;;;;;5049697;28;20436;-75
2022/01/11 11:53:29;;;;;;;23.83;16.45;;;4.50;99.90;;;;;;5072995;28;20402;-75
2022/01/11 11:56:21;;;;;;;26.63;17.48;;;4.30;99.90;;;;;;5072195;28;20402;-75
2022/01/11 11:58:58;;;;;;;21.63;16.25;;;4.20;99.90;;;;;;5072694;28;20451;-75
2022/01/11 12:01:34;;;;;;;24.83;17.63;;;4.10;99.90;;;;;;5072208;28;20409;-75
2022/01/11 12:04:00;;;;;;;23.80;15.63;;;4.10;99.90;;;;;;5071020;28;20471;-75
2022/01/11 12:06:27;;;;;;;22.55;16.23;;;4.10;99.90;;;;;;5071115;28;20802;-75
2022/01/11 12:09:05;;;;;;;22.40;16.42;;;4.00;99.90;;;;;;5089379;28;20433;-75
2022/01/11 12:11:43;;;;;;;23.05;16.13;;;4.00;99.90;;;;;;5071784;28;20414;-75
2022/01/11 12:14:31;;;;;;;22.77;15.80;;;3.90;99.90;;;;;;5087346;28;20435;-75
2022/01/11 12:17:22;;;;;;;25.27;16.88;;;3.90;99.90;;;;;;5068896;28;20425;-76
2022/01/11 12:19:53;;;;;;;19.83;15.63;;;3.80;99.90;;;;;;5075195;28;20406;-72
2022/01/11 12:22:21;;;;;;;22.17;16.00;;;3.80;99.90;;;;;;5086688;28;20426;-72
2022/01/11 12:24:48;;;;;;;21.25;15.60;;;3.80;99.90;;;;;;5070630;28;20824;-73
2022/01/11 12:27:15;;;;;;;;;;;3.70;99.90;;;;;;5055437;28;20096;-74
2022/01/11 12:29:54;;;;;;;;;;;3.70;99.90;;;;;;5091627;28;19920;-74
2022/01/11 12:32:22;;;;;;;;;;;3.70;99.90;;;;;;5073967;28;19942;-72
2022/01/11 12:34:50;;;;;;;;;;;3.70;99.90;;;;;;5073548;28;19955;-73